Time;durP1;ratioP1;P1;durP2;ratioP2;P2;SDS_P1;SDS_P2;PMS_P1;PMS_P2;Temp;Humidity;BMP_temperature;BMP_pressure;BME280_temperature;BME280_humidity;BME280_pressure;Samples;Min_cycle;Max_cycle;Signal;HPM_P1;HPM_P2
2022/07/08 00:00:49;;;;;;;5.20;2.80;;;;;;;;;;5093696;28;24441;-47
2022/07/08 00:03:14;;;;;;;5.13;2.75;;;;;;;;;;5095035;28;24465;-45
2022/07/08 00:05:39;;;;;;;3.77;2.83;;;;;;;;;;5101048;28;24521;-45
2022/07/08 00:08:05;;;;;;;5.53;2.70;;;;;;;;;;5091955;28;24554;-45
2022/07/08 00:10:30;;;;;;;7.17;2.90;;;;;;;;;;5093646;28;25006;-46
2022/07/08 00:12:55;;;;;;;4.75;2.70;;;;;;;;;;5105315;28;24535;-46
2022/07/08 00:15:23;;;;;;;4.10;2.50;;;;;;;;;;5098390;28;24433;-46
2022/07/08 00:17:48;;;;;;;6.13;2.70;;;;;;;;;;5091051;28;24897;-46
2022/07/08 00:20:13;;;;;;;6.70;2.67;;;;;;;;;;5099489;28;25134;-46
2022/07/08 00:22:38;;;;;;;5.17;2.80;;;;;;;;;;5100124;28;25199;-46
2022/07/08 00:25:04;;;;;;;4.88;2.90;;;;;;;;;;5091759;28;25258;-46
2022/07/08 00:27:29;;;;;;;6.30;2.67;;;;;;;;;;5094407;28;24805;-46
2022/07/08 00:29:54;;;;;;;6.25;3.13;;;;;;;;;;5091406;28;24551;-46
2022/07/08 00:32:19;;;;;;;5.38;2.58;;;;;;;;;;5097758;28;24983;-46
2022/07/08 00:34:44;;;;;;;5.32;2.70;;;;;;;;;;5103502;28;24405;-46
2022/07/08 00:37:10;;;;;;;5.10;2.50;;;;;;;;;;5097499;28;24466;-46
2022/07/08 00:39:35;;;;;;;5.80;2.80;;;;;;;;;;5090823;28;24985;-47
2022/07/08 00:42:00;;;;;;;5.43;2.40;;;;;;;;;;5098743;27;24647;-46
2022/07/08 00:44:26;;;;;;;4.77;2.70;;;;;;;;;;5095986;28;24489;-46
2022/07/08 00:46:51;;;;;;;6.23;2.70;;;;;;;;;;5096795;28;24552;-46
2022/07/08 00:49:16;;;;;;;7.50;2.80;;;;;;;;;;5092884;28;24475;-46
2022/07/08 00:51:42;;;;;;;6.43;3.30;;;;;;;;;;5094940;28;24991;-46
2022/07/08 00:54:07;;;;;;;5.97;2.70;;;;;;;;;;5099838;28;24421;-46
2022/07/08 00:56:33;;;;;;;5.03;2.60;;;;;;;;;;5090832;28;24861;-46
2022/07/08 00:58:58;;;;;;;4.77;3.00;;;;;;;;;;5095767;28;24667;-46
2022/07/08 01:01:23;;;;;;;6.57;2.90;;;;;;;;;;5098670;28;24525;-46
2022/07/08 01:03:48;;;;;;;6.03;3.10;;;;;;;;;;5101972;28;24418;-46
2022/07/08 01:06:14;;;;;;;7.00;2.90;;;;;;;;;;5096918;28;24460;-46
2022/07/08 01:08:39;;;;;;;7.07;3.20;;;;;;;;;;5100724;28;24986;-46
2022/07/08 01:11:05;;;;;;;5.97;2.63;;;;;;;;;;5094390;28;24523;-46
2022/07/08 01:13:30;;;;;;;5.65;2.72;;;;;;;;;;5096104;28;24434;-46
2022/07/08 01:15:55;;;;;;;7.00;2.80;;;;;;;;;;5094468;28;24426;-46
2022/07/08 01:18:27;;;;;;;4.95;2.35;;;;;;;;;;5103020;28;25274;-46
2022/07/08 01:20:53;;;;;;;5.82;2.88;;;;;;;;;;5091185;28;24977;-46
2022/07/08 01:23:18;;;;;;;5.00;2.63;;;;;;;;;;5095231;28;24503;-46
2022/07/08 01:25:44;;;;;;;5.30;2.83;;;;;;;;;;5094047;28;24468;-45
2022/07/08 01:28:09;;;;;;;7.43;3.00;;;;;;;;;;5097634;28;25187;-46
2022/07/08 01:30:34;;;;;;;5.60;2.93;;;;;;;;;;5095777;28;24422;-46
2022/07/08 01:32:59;;;;;;;4.90;2.70;;;;;;;;;;5102090;28;24463;-46
2022/07/08 01:35:24;;;;;;;6.45;2.95;;;;;;;;;;5090767;28;24946;-46
2022/07/08 01:37:50;;;;;;;5.80;2.47;;;;;;;;;;5100180;28;25242;-46
2022/07/08 01:40:15;;;;;;;5.43;2.80;;;;;;;;;;5094893;28;24418;-46
2022/07/08 01:42:40;;;;;;;6.73;2.90;;;;;;;;;;5096802;28;24414;-46
2022/07/08 01:45:05;;;;;;;6.00;2.40;;;;;;;;;;5093919;28;24421;-46
2022/07/08 01:47:30;;;;;;;5.30;2.90;;;;;;;;;;5103810;28;24574;-46
2022/07/08 01:49:56;;;;;;;7.23;2.90;;;;;;;;;;5091726;28;24537;-46
2022/07/08 01:52:21;;;;;;;4.80;2.22;;;;;;;;;;5100328;28;24410;-46
2022/07/08 01:54:46;;;;;;;4.07;2.47;;;;;;;;;;5103928;28;24748;-46
2022/07/08 01:57:14;;;;;;;5.50;2.73;;;;;;;;;;5106387;28;24755;-47
2022/07/08 01:59:40;;;;;;;4.20;2.45;;;;;;;;;;5100898;28;24475;-46
2022/07/08 02:02:05;;;;;;;4.32;2.50;;;;;;;;;;5103604;28;24468;-47
2022/07/08 02:04:30;;;;;;;7.97;3.17;;;;;;;;;;5099591;28;24588;-46
2022/07/08 02:06:55;;;;;;;5.13;2.70;;;;;;;;;;5092805;28;24979;-46
2022/07/08 02:09:20;;;;;;;7.95;3.70;;;;;;;;;;5091094;28;24491;-46
2022/07/08 02:14:29;;;;;;;4.85;2.95;;;;;;;;;;5097314;28;24462;-46
2022/07/08 02:16:55;;;;;;;5.28;3.08;;;;;;;;;;5103786;28;24429;-46
2022/07/08 02:19:20;;;;;;;3.38;2.80;;;;;;;;;;5090424;28;24967;-46
2022/07/08 02:21:45;;;;;;;5.72;2.88;;;;;;;;;;5101660;28;24517;-46
2022/07/08 02:24:10;;;;;;;7.95;3.50;;;;;;;;;;5091053;28;24414;-46
2022/07/08 02:26:35;;;;;;;4.10;2.50;;;;;;;;;;5099026;28;24975;-46
2022/07/08 02:29:00;;;;;;;4.18;3.10;;;;;;;;;;5095356;28;24669;-46
2022/07/08 02:31:25;;;;;;;3.88;2.70;;;;;;;;;;5093435;28;24772;-46
2022/07/08 02:33:51;;;;;;;6.00;3.00;;;;;;;;;;5099048;28;24406;-46
2022/07/08 02:36:16;;;;;;;8.60;3.70;;;;;;;;;;5097748;28;24532;-46
2022/07/08 02:38:41;;;;;;;4.20;2.80;;;;;;;;;;5099474;28;24438;-46
2022/07/08 02:41:06;;;;;;;6.78;3.63;;;;;;;;;;5103119;28;24517;-46
2022/07/08 02:43:31;;;;;;;4.20;2.70;;;;;;;;;;5100184;28;24456;-46
2022/07/08 02:45:56;;;;;;;7.53;3.55;;;;;;;;;;5091599;28;24952;-46
2022/07/08 02:48:21;;;;;;;6.10;3.65;;;;;;;;;;5101869;28;24441;-46
2022/07/08 02:50:47;;;;;;;6.00;3.30;;;;;;;;;;5100037;28;24888;-46
2022/07/08 02:53:12;;;;;;;6.60;3.53;;;;;;;;;;5103369;28;25014;-46
2022/07/08 02:55:37;;;;;;;6.70;3.40;;;;;;;;;;5104380;28;24414;-46
2022/07/08 02:58:02;;;;;;;6.50;3.13;;;;;;;;;;5097587;28;24433;-46
2022/07/08 03:00:28;;;;;;;5.88;3.17;;;;;;;;;;5092938;28;24808;-46
2022/07/08 03:02:53;;;;;;;7.10;4.00;;;;;;;;;;5104333;28;25069;-46
2022/07/08 03:05:18;;;;;;;9.30;3.63;;;;;;;;;;5097433;28;24425;-46
2022/07/08 03:07:43;;;;;;;7.10;3.45;;;;;;;;;;5103961;28;24777;-46
2022/07/08 03:10:08;;;;;;;6.83;3.20;;;;;;;;;;5098906;28;24422;-47
2022/07/08 03:12:34;;;;;;;5.45;3.15;;;;;;;;;;5097928;28;24417;-45
2022/07/08 03:14:59;;;;;;;6.22;3.70;;;;;;;;;;5092343;28;24420;-46
2022/07/08 03:17:24;;;;;;;6.87;4.00;;;;;;;;;;5096353;28;24458;-46
2022/07/08 03:19:49;;;;;;;5.33;3.40;;;;;;;;;;5098223;28;24418;-46
2022/07/08 03:22:15;;;;;;;9.20;4.07;;;;;;;;;;5091835;28;24428;-46
2022/07/08 03:24:40;;;;;;;7.87;4.30;;;;;;;;;;5105529;27;24504;-46
2022/07/08 03:27:05;;;;;;;9.45;4.15;;;;;;;;;;5093155;28;24827;-46
2022/07/08 03:29:30;;;;;;;6.78;4.18;;;;;;;;;;5094755;28;24529;-45
2022/07/08 03:31:55;;;;;;;12.95;5.32;;;;;;;;;;5097966;28;24479;-45
2022/07/08 03:34:20;;;;;;;9.00;4.70;;;;;;;;;;5086630;28;24924;-48
2022/07/08 03:36:46;;;;;;;7.67;4.13;;;;;;;;;;5098139;28;24974;-46
2022/07/08 03:39:11;;;;;;;8.50;4.50;;;;;;;;;;5085671;28;24485;-46
2022/07/08 03:41:36;;;;;;;7.10;4.30;;;;;;;;;;5104924;27;24560;-47
2022/07/08 03:44:01;;;;;;;7.53;4.45;;;;;;;;;;5098905;28;24420;-47
2022/07/08 03:46:26;;;;;;;8.57;5.10;;;;;;;;;;5100153;28;24471;-47
2022/07/08 03:48:51;;;;;;;7.60;4.40;;;;;;;;;;5101984;28;25216;-46
2022/07/08 03:51:17;;;;;;;7.40;4.70;;;;;;;;;;5092045;28;24426;-47
2022/07/08 03:53:43;;;;;;;7.57;4.85;;;;;;;;;;5105353;28;24417;-45
2022/07/08 03:56:08;;;;;;;6.87;5.10;;;;;;;;;;5099603;28;24831;-46
2022/07/08 03:58:34;;;;;;;10.17;5.40;;;;;;;;;;5095849;28;24812;-45
2022/07/08 04:00:59;;;;;;;7.10;4.40;;;;;;;;;;5094460;28;24426;-46
2022/07/08 04:03:25;;;;;;;6.50;3.87;;;;;;;;;;5087734;28;24429;-46
2022/07/08 04:05:50;;;;;;;7.00;4.10;;;;;;;;;;5092926;28;25628;-46
2022/07/08 04:08:15;;;;;;;9.07;5.63;;;;;;;;;;5102833;28;24565;-46
2022/07/08 04:10:40;;;;;;;8.00;4.80;;;;;;;;;;5089645;28;26215;-46
2022/07/08 04:13:05;;;;;;;5.70;4.50;;;;;;;;;;5093016;28;24482;-45
2022/07/08 04:15:31;;;;;;;8.02;4.90;;;;;;;;;;5103253;28;24890;-46
2022/07/08 04:17:56;;;;;;;7.40;4.70;;;;;;;;;;5087423;28;24944;-45
2022/07/08 04:20:21;;;;;;;6.93;4.50;;;;;;;;;;5097121;28;24974;-45
2022/07/08 04:22:46;;;;;;;8.67;5.30;;;;;;;;;;5088253;28;24458;-46
2022/07/08 04:25:12;;;;;;;13.40;5.93;;;;;;;;;;5096245;28;24558;-46
2022/07/08 04:27:37;;;;;;;7.65;4.97;;;;;;;;;;5099006;28;24429;-46
2022/07/08 04:30:03;;;;;;;8.13;4.88;;;;;;;;;;5103829;28;24472;-46
2022/07/08 04:32:28;;;;;;;7.85;4.35;;;;;;;;;;5094217;28;24429;-45
2022/07/08 04:34:58;;;;;;;7.83;4.70;;;;;;;;;;5093109;28;24428;-47
2022/07/08 04:37:23;;;;;;;9.73;4.95;;;;;;;;;;5093434;28;24533;-46
2022/07/08 04:39:48;;;;;;;9.77;5.25;;;;;;;;;;5087202;28;24917;-46
2022/07/08 04:42:13;;;;;;;7.93;4.55;;;;;;;;;;5094602;28;24421;-45
2022/07/08 04:44:38;;;;;;;9.57;5.13;;;;;;;;;;5089569;28;24556;-45
2022/07/08 04:47:03;;;;;;;11.90;5.10;;;;;;;;;;5081492;28;24491;-45
2022/07/08 04:49:29;;;;;;;10.13;4.40;;;;;;;;;;5085396;28;24434;-46
2022/07/08 04:51:54;;;;;;;7.10;4.60;;;;;;;;;;5098119;28;24559;-47
2022/07/08 04:54:19;;;;;;;9.23;5.10;;;;;;;;;;5084713;28;24517;-46
2022/07/08 04:56:44;;;;;;;8.00;4.88;;;;;;;;;;5095037;28;24421;-46
2022/07/08 04:59:09;;;;;;;9.13;5.30;;;;;;;;;;5091446;28;24452;-45
2022/07/08 05:01:34;;;;;;;9.40;4.90;;;;;;;;;;5091956;28;25315;-46
2022/07/08 05:03:59;;;;;;;12.13;5.60;;;;;;;;;;5099503;28;24402;-45
2022/07/08 05:06:25;;;;;;;7.30;4.93;;;;;;;;;;5099486;28;24441;-45
2022/07/08 05:08:50;;;;;;;7.22;4.60;;;;;;;;;;5093326;28;24473;-46
2022/07/08 05:11:15;;;;;;;12.50;5.88;;;;;;;;;;5112898;27;25115;-46
2022/07/08 05:13:40;;;;;;;11.23;5.67;;;;;;;;;;5097224;28;24418;-46
2022/07/08 05:16:05;;;;;;;8.93;5.00;;;;;;;;;;5085170;28;25038;-46
2022/07/08 05:18:30;;;;;;;14.20;6.07;;;;;;;;;;5093726;28;24453;-46
2022/07/08 05:20:56;;;;;;;9.23;5.20;;;;;;;;;;5103178;28;24764;-46
2022/07/08 05:23:21;;;;;;;11.07;5.50;;;;;;;;;;5100200;28;24421;-47
2022/07/08 05:25:46;;;;;;;10.82;5.45;;;;;;;;;;5089732;28;24468;-47
2022/07/08 05:28:11;;;;;;;10.40;5.10;;;;;;;;;;5091301;28;24798;-46
2022/07/08 05:30:36;;;;;;;9.20;5.85;;;;;;;;;;5083687;28;24414;-46
2022/07/08 05:33:01;;;;;;;12.60;6.07;;;;;;;;;;5084471;28;24493;-46
2022/07/08 05:35:27;;;;;;;10.07;5.00;;;;;;;;;;5084966;28;24416;-46
2022/07/08 05:37:52;;;;;;;10.57;5.30;;;;;;;;;;5094848;28;24425;-47
2022/07/08 05:40:17;;;;;;;10.43;5.50;;;;;;;;;;5091178;28;24510;-47
2022/07/08 05:42:42;;;;;;;11.65;6.30;;;;;;;;;;5095080;28;24776;-47
2022/07/08 05:45:08;;;;;;;12.30;6.67;;;;;;;;;;5100191;28;24607;-47
2022/07/08 05:47:33;;;;;;;12.15;6.32;;;;;;;;;;5101357;28;24667;-47
2022/07/08 05:49:58;;;;;;;13.37;6.77;;;;;;;;;;5101280;28;24437;-46
2022/07/08 05:52:24;;;;;;;8.80;5.50;;;;;;;;;;5098397;28;24500;-47
2022/07/08 05:54:49;;;;;;;12.73;5.95;;;;;;;;;;5090012;28;24417;-46
2022/07/08 05:57:14;;;;;;;13.35;6.95;;;;;;;;;;5094779;28;24422;-46
2022/07/08 05:59:40;;;;;;;8.57;5.60;;;;;;;;;;5084562;28;24823;-47
2022/07/08 06:02:05;;;;;;;14.90;6.53;;;;;;;;;;5090580;28;24414;-46
2022/07/08 06:04:30;;;;;;;13.93;6.97;;;;;;;;;;5094483;28;24422;-46
2022/07/08 06:06:56;;;;;;;10.20;5.80;;;;;;;;;;5085457;28;24856;-46
2022/07/08 06:09:21;;;;;;;8.17;4.80;;;;;;;;;;5086889;28;24461;-47
2022/07/08 06:11:46;;;;;;;11.57;5.60;;;;;;;;;;5095193;28;24464;-47
2022/07/08 06:14:11;;;;;;;14.13;6.37;;;;;;;;;;5094216;28;24822;-46
2022/07/08 06:16:37;;;;;;;14.45;7.15;;;;;;;;;;5099990;28;24469;-45
2022/07/08 06:19:02;;;;;;;12.73;6.07;;;;;;;;;;5096157;28;24429;-46
2022/07/08 06:21:27;;;;;;;15.00;6.50;;;;;;;;;;5085006;28;24437;-46
2022/07/08 06:23:53;;;;;;;13.05;5.28;;;;;;;;;;5088210;28;24422;-46
2022/07/08 06:26:18;;;;;;;12.80;6.60;;;;;;;;;;5083951;28;24968;-46
2022/07/08 06:28:43;;;;;;;12.93;6.47;;;;;;;;;;5084441;28;24391;-46
2022/07/08 06:31:08;;;;;;;11.98;6.00;;;;;;;;;;5085342;28;24476;-45
2022/07/08 06:33:33;;;;;;;11.68;5.55;;;;;;;;;;5099942;28;24548;-45
2022/07/08 06:35:58;;;;;;;9.65;6.15;;;;;;;;;;5107388;28;24980;-46
2022/07/08 06:38:24;;;;;;;11.02;6.03;;;;;;;;;;5088435;28;24453;-46
2022/07/08 06:40:49;;;;;;;12.15;6.50;;;;;;;;;;5093626;28;24420;-45
2022/07/08 06:43:14;;;;;;;12.63;5.60;;;;;;;;;;5085436;28;24878;-46
2022/07/08 06:45:39;;;;;;;10.07;5.53;;;;;;;;;;5088550;28;24421;-46
2022/07/08 06:48:04;;;;;;;9.57;4.90;;;;;;;;;;5085782;28;24449;-46
2022/07/08 06:50:30;;;;;;;8.47;4.80;;;;;;;;;;5086404;28;24432;-46
2022/07/08 06:52:55;;;;;;;7.53;4.60;;;;;;;;;;5101663;28;24471;-46
2022/07/08 06:55:21;;;;;;;11.60;5.43;;;;;;;;;;5102664;28;24421;-45
2022/07/08 06:57:46;;;;;;;8.98;5.60;;;;;;;;;;5087380;28;24418;-46
2022/07/08 07:00:12;;;;;;;10.10;5.20;;;;;;;;;;5087821;28;24926;-45
2022/07/08 07:02:37;;;;;;;6.03;4.20;;;;;;;;;;5087532;28;24432;-46
2022/07/08 07:05:02;;;;;;;7.60;4.45;;;;;;;;;;5086452;28;24432;-45
2022/07/08 07:07:27;;;;;;;7.75;4.40;;;;;;;;;;5087025;28;24488;-46
2022/07/08 07:09:52;;;;;;;11.43;5.70;;;;;;;;;;5085715;28;24424;-46
2022/07/08 07:12:18;;;;;;;9.40;5.00;;;;;;;;;;5102209;28;24502;-46
2022/07/08 07:14:43;;;;;;;10.73;4.90;;;;;;;;;;5107946;28;24394;-46
2022/07/08 07:17:08;;;;;;;12.53;5.20;;;;;;;;;;5092656;28;25143;-46
2022/07/08 07:19:33;;;;;;;9.33;5.10;;;;;;;;;;5087569;28;24407;-46
2022/07/08 07:21:58;;;;;;;8.63;4.30;;;;;;;;;;5087651;28;24417;-46
2022/07/08 07:24:23;;;;;;;7.37;4.50;;;;;;;;;;5084660;28;24398;-46
2022/07/08 07:26:49;;;;;;;11.15;5.55;;;;;;;;;;5086963;28;24433;-46
2022/07/08 07:29:14;;;;;;;6.83;3.40;;;;;;;;;;5087639;28;24399;-46
2022/07/08 07:31:39;;;;;;;9.63;4.85;;;;;;;;;;5086384;28;24538;-44
2022/07/08 07:34:04;;;;;;;9.88;4.95;;;;;;;;;;5106730;28;24405;-45
2022/07/08 07:36:30;;;;;;;14.50;5.57;;;;;;;;;;5105878;28;24460;-46
2022/07/08 07:38:55;;;;;;;9.57;5.18;;;;;;;;;;5106204;28;24396;-46
2022/07/08 07:41:20;;;;;;;9.50;5.40;;;;;;;;;;5094642;28;24452;-46
2022/07/08 07:43:45;;;;;;;10.10;4.87;;;;;;;;;;5084698;28;24422;-46
2022/07/08 07:46:11;;;;;;;8.20;4.90;;;;;;;;;;5086738;28;24426;-46
2022/07/08 07:48:36;;;;;;;8.43;4.67;;;;;;;;;;5084485;28;24433;-46
2022/07/08 07:51:01;;;;;;;7.40;4.60;;;;;;;;;;5086273;28;24933;-47
2022/07/08 07:53:27;;;;;;;9.93;4.50;;;;;;;;;;5086163;28;25046;-46
2022/07/08 07:55:52;;;;;;;5.63;4.20;;;;;;;;;;5088721;28;24418;-46
2022/07/08 07:58:17;;;;;;;7.87;4.53;;;;;;;;;;5098217;28;24560;-46
2022/07/08 08:00:43;;;;;;;7.00;4.15;;;;;;;;;;5085931;28;25054;-46
2022/07/08 08:03:08;;;;;;;9.07;5.10;;;;;;;;;;5084727;28;24427;-46
2022/07/08 08:05:33;;;;;;;8.93;4.22;;;;;;;;;;5086145;28;24426;-46
2022/07/08 08:07:59;;;;;;;6.30;4.07;;;;;;;;;;5085507;28;24791;-46
2022/07/08 08:10:24;;;;;;;7.28;4.38;;;;;;;;;;5085799;28;24713;-46
2022/07/08 08:12:49;;;;;;;5.13;3.33;;;;;;;;;;5086076;28;24947;-46
2022/07/08 08:15:14;;;;;;;7.13;4.05;;;;;;;;;;5086179;28;24475;-46
2022/07/08 08:17:40;;;;;;;8.33;3.43;;;;;;;;;;5085899;28;24405;-46
2022/07/08 08:20:06;;;;;;;6.80;3.80;;;;;;;;;;5086145;28;24495;-46
2022/07/08 08:22:31;;;;;;;8.40;4.40;;;;;;;;;;5084646;28;24873;-46
2022/07/08 08:24:56;;;;;;;7.60;3.83;;;;;;;;;;5100009;28;24425;-46
2022/07/08 08:27:22;;;;;;;5.50;3.50;;;;;;;;;;5086336;28;24416;-46
2022/07/08 08:29:47;;;;;;;6.93;3.80;;;;;;;;;;5085374;28;24438;-46
2022/07/08 08:32:12;;;;;;;5.70;3.50;;;;;;;;;;5085038;28;24953;-47
2022/07/08 08:34:37;;;;;;;6.47;3.70;;;;;;;;;;5096603;28;24469;-47
2022/07/08 08:37:02;;;;;;;9.27;4.25;;;;;;;;;;5084441;28;24492;-46
2022/07/08 08:39:28;;;;;;;5.20;3.20;;;;;;;;;;5099583;28;24832;-46
2022/07/08 08:41:53;;;;;;;6.83;4.20;;;;;;;;;;5084838;28;24388;-46
2022/07/08 08:44:18;;;;;;;5.80;3.30;;;;;;;;;;5085129;28;24437;-46
2022/07/08 08:46:43;;;;;;;7.63;3.90;;;;;;;;;;5083698;28;24398;-47
2022/07/08 08:49:10;;;;;;;4.90;3.37;;;;;;;;;;5085218;28;24483;-46
2022/07/08 08:51:35;;;;;;;5.57;3.50;;;;;;;;;;5084486;28;24410;-47
2022/07/08 08:54:02;;;;;;;5.10;3.60;;;;;;;;;;5084537;28;24556;-46
2022/07/08 08:56:27;;;;;;;6.35;3.10;;;;;;;;;;5084965;28;24399;-47
2022/07/08 08:58:53;;;;;;;5.20;3.40;;;;;;;;;;5085032;28;24463;-46
2022/07/08 09:01:19;;;;;;;5.75;3.10;;;;;;;;;;5083764;28;24532;-47
2022/07/08 09:03:44;;;;;;;6.68;3.40;;;;;;;;;;5084823;28;24497;-47
2022/07/08 09:06:10;;;;;;;6.20;3.27;;;;;;;;;;5102615;28;24463;-46
2022/07/08 09:08:36;;;;;;;6.30;3.23;;;;;;;;;;5104999;28;24401;-46
2022/07/08 09:11:01;;;;;;;5.40;3.20;;;;;;;;;;5106000;28;24436;-46
2022/07/08 09:13:26;;;;;;;7.17;3.40;;;;;;;;;;5104980;28;24965;-46
2022/07/08 09:15:57;;;;;;;6.77;3.53;;;;;;;;;;5094202;28;24414;-46
2022/07/08 09:18:26;;;;;;;6.60;3.60;;;;;;;;;;5088662;28;24456;-46
2022/07/08 09:20:52;;;;;;;10.02;4.47;;;;;;;;;;5105983;28;24409;-46
2022/07/08 09:23:23;;;;;;;5.37;3.60;;;;;;;;;;5100571;28;24441;-46
2022/07/08 09:25:49;;;;;;;5.32;3.30;;;;;;;;;;5085357;28;24426;-46
2022/07/08 09:28:15;;;;;;;6.20;3.22;;;;;;;;;;5084379;28;24467;-46
2022/07/08 09:30:44;;;;;;;4.82;3.22;;;;;;;;;;5084702;28;24551;-46
2022/07/08 09:33:09;;;;;;;4.43;3.20;;;;;;;;;;5084789;28;24449;-46
2022/07/08 09:35:36;;;;;;;4.37;3.33;;;;;;;;;;5083709;28;24917;-47
2022/07/08 09:38:08;;;;;;;6.32;3.65;;;;;;;;;;5097422;28;24407;-46
2022/07/08 09:40:34;;;;;;;5.32;3.30;;;;;;;;;;5084442;28;24474;-46
2022/07/08 09:42:59;;;;;;;6.43;3.50;;;;;;;;;;5083929;28;24551;-47
2022/07/08 09:45:29;;;;;;;5.10;3.10;;;;;;;;;;5084666;28;25009;-46
2022/07/08 09:48:00;;;;;;;8.93;3.92;;;;;;;;;;5082553;28;24453;-46
2022/07/08 09:50:31;;;;;;;5.95;3.50;;;;;;;;;;5082908;28;24406;-46
2022/07/08 09:52:57;;;;;;;3.88;2.70;;;;;;;;;;5084085;28;24426;-46
2022/07/08 09:55:22;;;;;;;4.35;2.63;;;;;;;;;;5082753;28;24402;-46
2022/07/08 09:57:47;;;;;;;5.70;2.90;;;;;;;;;;5084263;28;24430;-46
2022/07/08 10:00:12;;;;;;;4.47;2.80;;;;;;;;;;5083422;28;24931;-46
2022/07/08 10:02:38;;;;;;;5.20;3.50;;;;;;;;;;5085035;28;24963;-46
2022/07/08 10:05:03;;;;;;;4.10;2.90;;;;;;;;;;5083925;28;24506;-46
2022/07/08 10:07:29;;;;;;;3.63;2.60;;;;;;;;;;5086503;28;24453;-45
2022/07/08 10:09:54;;;;;;;5.18;2.70;;;;;;;;;;5087715;28;24418;-46
2022/07/08 10:12:19;;;;;;;5.43;3.28;;;;;;;;;;5089254;28;24452;-46
2022/07/08 10:14:46;;;;;;;4.23;2.60;;;;;;;;;;5089181;28;24951;-46
2022/07/08 10:17:14;;;;;;;5.65;2.80;;;;;;;;;;5088662;28;24998;-46
2022/07/08 10:19:39;;;;;;;4.57;2.72;;;;;;;;;;5097125;28;24432;-46
2022/07/08 10:22:05;;;;;;;5.27;2.70;;;;;;;;;;5102125;28;24418;-46
2022/07/08 10:24:31;;;;;;;4.25;2.80;;;;;;;;;;5086910;28;24749;-47
2022/07/08 10:26:57;;;;;;;5.13;2.50;;;;;;;;;;5088048;28;25288;-46
2022/07/08 10:29:28;;;;;;;4.70;2.60;;;;;;;;;;5087823;28;25215;-47
2022/07/08 10:31:53;;;;;;;6.30;2.83;;;;;;;;;;5087188;28;24460;-47
2022/07/08 10:34:19;;;;;;;4.60;2.90;;;;;;;;;;5087375;28;24410;-47
2022/07/08 10:36:49;;;;;;;3.22;2.13;;;;;;;;;;5101019;28;24467;-47
2022/07/08 10:39:22;;;;;;;5.60;2.80;;;;;;;;;;5095007;28;24458;-44
2022/07/08 10:41:57;;;;;;;3.70;2.30;;;;;;;;;;5101697;28;24452;-45
2022/07/08 10:44:42;;;;;;;4.50;2.70;;;;;;;;;;5097845;28;24422;-47
2022/07/08 10:47:17;;;;;;;2.97;2.30;;;;;;;;;;5099333;28;25393;-46
2022/07/08 10:49:43;;;;;;;5.03;2.60;;;;;;;;;;5107142;28;24478;-46
2022/07/08 10:52:08;;;;;;;5.47;2.70;;;;;;;;;;5097126;28;25117;-46
2022/07/08 10:54:37;;;;;;;4.47;2.60;;;;;;;;;;5087522;28;24421;-46
2022/07/08 10:57:06;;;;;;;5.80;2.53;;;;;;;;;;5086697;28;24453;-47
2022/07/08 10:59:32;;;;;;;5.13;2.60;;;;;;;;;;5100900;28;24441;-47
2022/07/08 11:02:04;;;;;;;4.30;2.60;;;;;;;;;;5097485;28;24944;-47
2022/07/08 11:04:39;;;;;;;4.00;2.30;;;;;;;;;;5088052;28;24429;-46
2022/07/08 11:07:33;;;;;;;3.97;2.58;;;;;;;;;;5086741;28;24430;-47
2022/07/08 11:10:02;;;;;;;3.90;2.50;;;;;;;;;;5087089;28;24402;-47
2022/07/08 11:12:28;;;;;;;4.95;2.50;;;;;;;;;;5086836;28;24860;-45
2022/07/08 11:14:55;;;;;;;4.40;2.80;;;;;;;;;;5083490;28;24494;-46
2022/07/08 11:17:31;;;;;;;4.60;2.65;;;;;;;;;;5087237;28;24488;-46
2022/07/08 11:19:57;;;;;;;4.25;2.70;;;;;;;;;;5105731;28;24509;-45
2022/07/08 11:22:23;;;;;;;4.88;2.88;;;;;;;;;;5091957;28;24584;-46
2022/07/08 11:24:48;;;;;;;7.20;3.00;;;;;;;;;;5086250;28;24493;-46
2022/07/08 11:27:13;;;;;;;5.33;2.70;;;;;;;;;;5087021;28;24422;-46
2022/07/08 11:29:46;;;;;;;5.30;2.57;;;;;;;;;;5083834;28;24958;-46
2022/07/08 11:32:11;;;;;;;6.10;2.95;;;;;;;;;;5090010;28;24410;-46
2022/07/08 11:34:36;;;;;;;6.60;2.70;;;;;;;;;;5095877;28;25240;-45
2022/07/08 11:37:02;;;;;;;5.45;2.65;;;;;;;;;;5092840;28;24525;-46
2022/07/08 11:39:27;;;;;;;3.80;2.43;;;;;;;;;;5085334;28;24421;-46
2022/07/08 11:41:53;;;;;;;3.27;2.27;;;;;;;;;;5086222;28;24415;-46
2022/07/08 11:44:20;;;;;;;3.40;2.20;;;;;;;;;;5085547;28;25003;-46
2022/07/08 11:46:49;;;;;;;5.80;2.47;;;;;;;;;;5086227;28;24434;-47
2022/07/08 11:49:14;;;;;;;4.97;2.40;;;;;;;;;;5086005;28;24517;-46
2022/07/08 11:51:46;;;;;;;3.57;2.20;;;;;;;;;;5087411;28;24563;-46
2022/07/08 11:54:12;;;;;;;3.67;2.15;;;;;;;;;;5104906;28;24988;-46
2022/07/08 11:56:37;;;;;;;3.35;2.30;;;;;;;;;;5095099;28;24430;-46
2022/07/08 11:59:02;;;;;;;3.50;2.60;;;;;;;;;;5083748;28;24420;-47
2022/07/08 12:01:27;;;;;;;4.77;3.20;;;;;;;;;;5085651;28;24464;-46
2022/07/08 12:03:53;;;;;;;6.63;3.40;;;;;;;;;;5097385;28;24424;-46
2022/07/08 12:06:22;;;;;;;3.50;3.10;;;;;;;;;;5085981;28;24410;-46
2022/07/08 12:08:47;;;;;;;4.10;3.30;;;;;;;;;;5086815;28;24485;-46
2022/07/08 12:11:19;;;;;;;6.60;3.90;;;;;;;;;;5096106;28;24590;-46
2022/07/08 12:13:45;;;;;;;5.43;3.60;;;;;;;;;;5093275;28;24449;-46
2022/07/08 12:16:25;;;;;;;6.90;3.40;;;;;;;;;;5094758;28;24878;-47
2022/07/08 12:18:50;;;;;;;4.97;3.20;;;;;;;;;;5084305;28;24424;-45
2022/07/08 12:21:16;;;;;;;5.32;3.30;;;;;;;;;;5085774;28;24426;-46
2022/07/08 12:23:44;;;;;;;6.10;3.30;;;;;;;;;;5084874;28;24734;-46
2022/07/08 12:26:10;;;;;;;4.80;3.50;;;;;;;;;;5094692;28;24541;-46
2022/07/08 12:28:35;;;;;;;6.70;3.40;;;;;;;;;;5089112;28;24497;-45
2022/07/08 12:31:00;;;;;;;6.00;3.70;;;;;;;;;;5089343;28;24568;-45
2022/07/08 12:33:27;;;;;;;3.50;3.05;;;;;;;;;;5106945;28;24409;-46
2022/07/08 12:35:52;;;;;;;4.25;3.33;;;;;;;;;;5106725;27;24389;-46
2022/07/08 12:38:21;;;;;;;5.00;2.90;;;;;;;;;;5102510;28;24471;-45
2022/07/08 12:40:47;;;;;;;5.18;3.50;;;;;;;;;;5095903;28;24447;-46
2022/07/08 12:43:13;;;;;;;4.93;3.80;;;;;;;;;;5094855;28;24409;-46
2022/07/08 12:45:42;;;;;;;6.38;4.10;;;;;;;;;;5101587;28;24429;-46
2022/07/08 12:48:07;;;;;;;3.50;3.20;;;;;;;;;;5080616;27;24446;-46
2022/07/08 12:50:33;;;;;;;5.43;3.60;;;;;;;;;;5102651;28;24448;-46
2022/07/08 12:52:59;;;;;;;5.73;3.10;;;;;;;;;;5093119;27;24476;-46
2022/07/08 12:55:24;;;;;;;3.10;2.90;;;;;;;;;;5093466;28;24495;-45
2022/07/08 12:57:50;;;;;;;6.13;3.30;;;;;;;;;;5098716;28;24444;-45
2022/07/08 13:00:17;;;;;;;4.10;3.20;;;;;;;;;;5105954;28;25015;-45
2022/07/08 13:02:43;;;;;;;6.70;2.90;;;;;;;;;;5106427;28;24443;-46
2022/07/08 13:05:08;;;;;;;3.90;2.80;;;;;;;;;;5104882;28;24429;-46
2022/07/08 13:07:33;;;;;;;3.57;2.33;;;;;;;;;;5106469;28;24420;-46
2022/07/08 13:09:58;;;;;;;5.25;2.60;;;;;;;;;;5106629;27;24970;-46
2022/07/08 13:12:23;;;;;;;4.43;2.70;;;;;;;;;;5106384;28;24696;-46
2022/07/08 13:14:49;;;;;;;5.53;2.70;;;;;;;;;;5110196;27;24536;-46
2022/07/08 13:17:15;;;;;;;4.00;2.70;;;;;;;;;;5107709;27;24814;-46
2022/07/08 13:19:40;;;;;;;3.85;2.47;;;;;;;;;;5101851;28;25249;-46
2022/07/08 13:22:07;;;;;;;4.75;2.30;;;;;;;;;;5105753;28;24431;-51
2022/07/08 13:24:33;;;;;;;4.50;2.72;;;;;;;;;;5101592;28;24781;-46
2022/07/08 13:26:58;;;;;;;4.70;2.40;;;;;;;;;;5108536;27;25002;-46
2022/07/08 13:29:23;;;;;;;5.20;2.70;;;;;;;;;;5104671;28;24405;-46
2022/07/08 13:31:48;;;;;;;4.40;2.80;;;;;;;;;;5099907;28;25024;-47
2022/07/08 13:34:19;;;;;;;3.07;2.57;;;;;;;;;;5105578;28;24428;-46
2022/07/08 13:36:44;;;;;;;4.75;2.70;;;;;;;;;;5085531;28;24469;-45
2022/07/08 13:39:09;;;;;;;3.23;2.70;;;;;;;;;;5094308;28;24861;-45
2022/07/08 13:41:34;;;;;;;3.55;2.85;;;;;;;;;;5107574;28;24448;-45
2022/07/08 13:43:59;;;;;;;4.20;3.13;;;;;;;;;;5114669;27;24406;-45
2022/07/08 13:46:26;;;;;;;3.27;2.80;;;;;;;;;;5095840;28;24471;-45
2022/07/08 13:48:51;;;;;;;3.25;2.40;;;;;;;;;;5106955;28;24554;-45
2022/07/08 13:51:16;;;;;;;4.40;3.20;;;;;;;;;;5107653;27;24434;-45
2022/07/08 13:53:42;;;;;;;5.20;3.10;;;;;;;;;;5106952;28;25191;-46
2022/07/08 13:56:07;;;;;;;7.40;3.10;;;;;;;;;;5109534;28;24386;-46
2022/07/08 13:58:32;;;;;;;3.40;3.10;;;;;;;;;;5094015;28;24720;-47
2022/07/08 14:00:58;;;;;;;5.75;2.95;;;;;;;;;;5109802;28;25157;-46
2022/07/08 14:03:23;;;;;;;3.70;3.00;;;;;;;;;;5109702;28;24406;-46
2022/07/08 14:05:48;;;;;;;3.40;3.10;;;;;;;;;;5109570;28;24432;-46
2022/07/08 14:08:13;;;;;;;4.43;2.97;;;;;;;;;;5109507;28;24390;-46
2022/07/08 14:10:38;;;;;;;5.03;2.88;;;;;;;;;;5089781;28;24487;-47
2022/07/08 14:13:04;;;;;;;4.90;3.15;;;;;;;;;;5088743;28;24402;-46
2022/07/08 14:15:29;;;;;;;3.25;2.63;;;;;;;;;;5089026;28;24469;-46
2022/07/08 14:17:54;;;;;;;4.63;2.87;;;;;;;;;;5089046;28;24767;-46
2022/07/08 14:20:19;;;;;;;2.75;2.55;;;;;;;;;;5089711;28;24430;-46
2022/07/08 14:22:44;;;;;;;4.13;2.80;;;;;;;;;;5085631;28;24433;-46
2022/07/08 14:25:09;;;;;;;3.00;2.70;;;;;;;;;;5087274;28;24430;-45
2022/07/08 14:27:35;;;;;;;3.70;2.50;;;;;;;;;;5085267;28;24419;-46
2022/07/08 14:30:00;;;;;;;2.80;2.40;;;;;;;;;;5092949;28;24424;-45
2022/07/08 14:32:25;;;;;;;5.90;3.20;;;;;;;;;;5086220;28;24485;-45
2022/07/08 14:34:50;;;;;;;3.00;2.50;;;;;;;;;;5086994;28;24622;-45